createdAt,value
2023-07-09T00:02:04.649Z,18.40
2023-07-09T00:04:31.602Z,18.40
2023-07-09T00:07:03.778Z,18.40
2023-07-09T00:09:31.086Z,18.30
2023-07-09T00:11:59.135Z,18.30
2023-07-09T00:14:26.738Z,18.20
2023-07-09T00:16:54.002Z,18.20
2023-07-09T00:19:24.969Z,18.20
2023-07-09T00:21:56.070Z,18.20
2023-07-09T00:24:23.638Z,18.20
2023-07-09T00:26:51.077Z,18.10
2023-07-09T00:29:19.198Z,18.10
2023-07-09T00:31:46.207Z,18.00
2023-07-09T00:34:18.489Z,17.90
2023-07-09T00:36:45.519Z,17.90
2023-07-09T00:39:23.307Z,17.80
2023-07-09T00:41:51.932Z,17.80
2023-07-09T00:44:21.598Z,17.70
2023-07-09T00:46:48.438Z,17.60
2023-07-09T00:49:30.395Z,17.60
2023-07-09T00:52:02.551Z,17.60
2023-07-09T00:54:34.049Z,17.50
2023-07-09T00:57:18.972Z,17.50
2023-07-09T00:59:59.581Z,17.50
2023-07-09T01:02:27.490Z,17.50
2023-07-09T01:05:01.863Z,17.50
2023-07-09T01:07:32.453Z,17.50
2023-07-09T01:09:59.552Z,17.50
2023-07-09T01:12:27.177Z,17.40
2023-07-09T01:15:00.036Z,17.40
2023-07-09T01:17:29.070Z,17.30
2023-07-09T01:19:57.865Z,17.30
2023-07-09T01:22:25.807Z,17.20
2023-07-09T01:25:03.417Z,17.20
2023-07-09T01:27:37.798Z,17.20
2023-07-09T01:30:15.901Z,17.20
2023-07-09T01:32:47.001Z,17.10
2023-07-09T01:35:18.216Z,17.00
2023-07-09T01:37:45.637Z,17.00
2023-07-09T01:40:28.903Z,16.90
2023-07-09T01:43:01.495Z,16.90
2023-07-09T01:45:29.646Z,16.80
2023-07-09T01:47:58.066Z,16.80
2023-07-09T01:50:26.152Z,16.70
2023-07-09T01:52:54.809Z,16.70
2023-07-09T01:55:22.331Z,16.70
2023-07-09T01:57:52.097Z,16.70
2023-07-09T02:00:19.616Z,16.70
2023-07-09T02:02:48.164Z,16.60
2023-07-09T02:05:20.434Z,16.50
2023-07-09T02:07:48.735Z,16.50
2023-07-09T02:10:17.801Z,16.60
2023-07-09T02:12:45.340Z,16.50
2023-07-09T02:15:12.898Z,16.50
2023-07-09T02:17:39.985Z,16.40
2023-07-09T02:20:09.290Z,16.40
2023-07-09T02:22:38.019Z,16.40
2023-07-09T02:25:06.911Z,16.40
2023-07-09T02:27:34.680Z,16.40
2023-07-09T02:30:01.603Z,16.30
2023-07-09T02:32:28.723Z,16.30
2023-07-09T02:34:56.478Z,16.30
2023-07-09T02:37:26.315Z,16.30
2023-07-09T02:39:53.764Z,16.30
2023-07-09T02:42:22.627Z,16.30
2023-07-09T02:44:49.638Z,16.30
2023-07-09T02:47:16.753Z,16.30
2023-07-09T02:49:44.142Z,16.30
2023-07-09T02:52:11.534Z,16.40
2023-07-09T02:54:38.533Z,16.30
2023-07-09T02:57:06.154Z,16.40
2023-07-09T02:59:33.818Z,16.30
2023-07-09T03:02:02.174Z,16.20
2023-07-09T03:04:29.259Z,16.10
2023-07-09T03:06:56.204Z,16.10
2023-07-09T03:09:22.985Z,16.00
2023-07-09T03:11:50.117Z,16.00
2023-07-09T03:14:17.731Z,15.90
2023-07-09T03:16:45.068Z,15.90
2023-07-09T03:19:12.187Z,15.90
2023-07-09T03:21:39.450Z,15.90
2023-07-09T03:24:07.301Z,15.80
2023-07-09T03:26:34.342Z,15.80
2023-07-09T03:29:01.400Z,15.80
2023-07-09T03:31:28.552Z,15.80
2023-07-09T03:33:55.445Z,15.70
2023-07-09T03:36:22.377Z,15.70
2023-07-09T03:38:49.930Z,15.60
2023-07-09T03:41:16.994Z,15.60
2023-07-09T03:43:44.028Z,15.70
2023-07-09T03:46:11.220Z,15.60
2023-07-09T03:48:38.344Z,15.60
2023-07-09T03:51:05.361Z,15.60
2023-07-09T03:53:32.237Z,15.60
2023-07-09T03:56:01.256Z,15.60
2023-07-09T03:58:28.827Z,15.70
2023-07-09T04:00:58.753Z,15.70
2023-07-09T04:03:25.655Z,15.80
2023-07-09T04:05:52.961Z,15.80
2023-07-09T04:08:19.843Z,15.80
2023-07-09T04:10:46.793Z,15.80
2023-07-09T04:13:13.876Z,15.80
2023-07-09T04:15:40.747Z,15.80
2023-07-09T04:18:07.773Z,15.80
2023-07-09T04:20:36.106Z,15.80
2023-07-09T04:23:03.627Z,15.80
2023-07-09T04:25:30.676Z,15.90
2023-07-09T04:27:57.686Z,15.90
2023-07-09T04:30:25.221Z,15.90
2023-07-09T04:32:52.182Z,16.00
2023-07-09T04:35:19.137Z,16.00
2023-07-09T04:37:46.016Z,16.10
2023-07-09T04:40:13.918Z,16.20
2023-07-09T04:42:41.507Z,16.20
2023-07-09T04:45:13.831Z,16.20
2023-07-09T04:47:41.126Z,16.30
2023-07-09T04:50:09.829Z,16.30
2023-07-09T04:52:36.756Z,16.40
2023-07-09T04:55:04.221Z,16.40
2023-07-09T04:57:31.154Z,16.40
2023-07-09T04:59:58.025Z,16.50
2023-07-09T05:02:25.175Z,16.60
2023-07-09T05:04:52.396Z,16.60
2023-07-09T05:07:19.704Z,16.70
2023-07-09T05:09:46.558Z,16.80
2023-07-09T05:12:13.376Z,16.80
2023-07-09T05:14:40.928Z,16.90
2023-07-09T05:17:08.917Z,17.00
2023-07-09T05:19:36.738Z,17.10
2023-07-09T05:22:03.748Z,17.20
2023-07-09T05:24:30.561Z,17.30
2023-07-09T05:26:57.428Z,17.40
2023-07-09T05:29:26.103Z,17.40
2023-07-09T05:31:53.024Z,17.50
2023-07-09T05:34:20.053Z,17.60
2023-07-09T05:36:47.098Z,17.70
2023-07-09T05:39:13.990Z,17.80
2023-07-09T05:41:40.880Z,17.90
2023-07-09T05:44:07.710Z,18.00
2023-07-09T05:46:38.457Z,18.10
2023-07-09T05:49:07.340Z,18.20
2023-07-09T05:51:34.825Z,18.30
2023-07-09T05:54:01.721Z,18.40
2023-07-09T05:56:30.170Z,18.50
2023-07-09T05:58:57.596Z,18.50
2023-07-09T06:01:25.608Z,18.60
2023-07-09T06:03:53.002Z,18.70
2023-07-09T06:06:19.860Z,18.90
2023-07-09T06:08:47.856Z,19.00
2023-07-09T06:11:15.108Z,19.20
2023-07-09T06:13:42.028Z,19.30
2023-07-09T06:16:09.212Z,19.40
2023-07-09T06:18:36.189Z,19.50
2023-07-09T06:21:04.287Z,19.60
2023-07-09T06:23:32.039Z,19.70
2023-07-09T06:25:59.570Z,19.80
2023-07-09T06:28:30.444Z,19.90
2023-07-09T06:30:58.231Z,20.10
2023-07-09T06:33:27.105Z,20.20
2023-07-09T06:36:03.006Z,20.30
2023-07-09T06:38:30.364Z,20.50
2023-07-09T06:40:58.548Z,20.60
2023-07-09T06:43:25.519Z,20.80
2023-07-09T06:45:56.315Z,20.80
2023-07-09T06:48:24.729Z,21.00
2023-07-09T06:50:53.419Z,21.20
2023-07-09T06:53:21.924Z,21.30
2023-07-09T06:55:50.195Z,21.40
2023-07-09T06:58:18.632Z,21.60
2023-07-09T07:00:46.491Z,21.70
2023-07-09T07:03:13.573Z,21.90
2023-07-09T07:05:45.964Z,22.00
2023-07-09T07:08:16.498Z,22.10
2023-07-09T07:10:43.804Z,22.30
2023-07-09T07:13:11.874Z,22.50
2023-07-09T07:15:39.636Z,22.70
2023-07-09T07:18:08.229Z,22.90
2023-07-09T07:20:35.825Z,23.10
2023-07-09T07:23:02.731Z,23.20
2023-07-09T07:25:31.495Z,23.30
2023-07-09T07:27:58.471Z,23.50
2023-07-09T07:30:26.408Z,23.70
2023-07-09T07:32:53.756Z,23.90
2023-07-09T07:35:20.959Z,24.00
2023-07-09T07:37:48.166Z,24.20
2023-07-09T07:40:15.184Z,24.40
2023-07-09T07:42:42.199Z,24.50
2023-07-09T07:45:10.245Z,24.60
2023-07-09T07:47:38.243Z,24.80
2023-07-09T07:50:07.155Z,24.90
2023-07-09T07:52:37.244Z,25.00
2023-07-09T07:55:07.263Z,25.20
2023-07-09T07:57:34.997Z,25.30
2023-07-09T08:00:03.813Z,25.50
2023-07-09T08:02:33.656Z,25.70
2023-07-09T08:05:00.890Z,25.80
2023-07-09T08:07:27.837Z,26.00
2023-07-09T08:09:54.703Z,26.10
2023-07-09T08:12:21.649Z,26.20
2023-07-09T08:14:48.592Z,26.30
2023-07-09T08:17:15.785Z,26.50
2023-07-09T08:19:49.090Z,26.70
2023-07-09T08:22:17.034Z,26.80
2023-07-09T08:24:44.393Z,27.00
2023-07-09T08:27:11.471Z,27.10
2023-07-09T08:29:38.480Z,27.20
2023-07-09T08:32:06.353Z,27.30
2023-07-09T08:34:33.275Z,27.40
2023-07-09T08:37:00.782Z,27.50
2023-07-09T08:39:27.874Z,27.50
2023-07-09T08:42:09.118Z,27.70
2023-07-09T08:44:45.906Z,27.80
2023-07-09T08:47:43.892Z,27.80
2023-07-09T08:50:20.178Z,28.00
2023-07-09T08:52:51.440Z,28.20
2023-07-09T08:55:23.512Z,28.30
2023-07-09T08:57:56.937Z,28.30
2023-07-09T09:00:31.002Z,28.40
2023-07-09T09:03:14.468Z,28.60
2023-07-09T09:05:47.783Z,28.70
2023-07-09T09:08:56.668Z,28.70
2023-07-09T09:11:49.839Z,28.80
2023-07-09T09:14:30.489Z,28.90
2023-07-09T09:16:58.156Z,29.10
2023-07-09T09:19:38.242Z,29.30
2023-07-09T09:22:12.804Z,29.40
2023-07-09T09:25:05.163Z,29.50
2023-07-09T09:27:32.510Z,29.60
2023-07-09T09:29:59.446Z,29.70
2023-07-09T09:32:44.710Z,29.90
2023-07-09T09:35:20.305Z,30.00
2023-07-09T09:37:59.446Z,30.20
2023-07-09T09:40:30.411Z,30.20
2023-07-09T09:43:00.285Z,30.30
2023-07-09T09:45:36.422Z,30.40
2023-07-09T09:48:15.120Z,30.50
2023-07-09T09:50:42.789Z,30.60
2023-07-09T09:53:11.779Z,30.70
2023-07-09T09:55:41.746Z,30.70
2023-07-09T09:58:16.130Z,30.90
2023-07-09T10:00:54.040Z,31.00
2023-07-09T10:03:21.104Z,31.10
2023-07-09T10:06:00.828Z,31.20
2023-07-09T10:08:57.549Z,31.30
2023-07-09T10:11:52.104Z,31.30
2023-07-09T10:14:57.127Z,31.40
2023-07-09T10:17:40.637Z,31.60
2023-07-09T10:20:36.921Z,31.70
2023-07-09T10:23:17.690Z,31.80
2023-07-09T10:26:20.422Z,31.90
2023-07-09T10:29:15.409Z,31.90
2023-07-09T10:32:02.141Z,32.10
2023-07-09T10:34:57.577Z,32.10
2023-07-09T10:38:03.097Z,32.20
2023-07-09T10:40:56.737Z,32.30
2023-07-09T10:43:43.041Z,32.40
2023-07-09T10:46:22.437Z,32.50
2023-07-09T10:48:53.130Z,32.40
2023-07-09T10:51:43.235Z,32.50
2023-07-09T10:54:33.542Z,32.60
2023-07-09T10:57:18.563Z,32.50
2023-07-09T10:59:49.698Z,32.50
2023-07-09T11:02:25.060Z,32.70
2023-07-09T11:04:58.820Z,32.80
2023-07-09T11:07:49.473Z,33.00
2023-07-09T11:10:27.364Z,33.10
2023-07-09T11:16:31.437Z,33.20
2023-07-09T11:19:03.460Z,33.20
2023-07-09T11:21:30.851Z,33.40
2023-07-09T11:24:01.106Z,33.50
2023-07-09T11:26:32.325Z,33.60
2023-07-09T11:29:08.075Z,33.70
2023-07-09T11:31:41.710Z,33.80
2023-07-09T11:34:08.665Z,33.80
2023-07-09T11:36:50.120Z,33.90
2023-07-09T11:39:28.858Z,33.90
2023-07-09T11:41:56.102Z,34.00
2023-07-09T11:44:29.370Z,34.00
2023-07-09T11:47:22.220Z,34.10
2023-07-09T11:50:06.985Z,34.00
2023-07-09T11:52:34.328Z,33.90
2023-07-09T11:55:42.815Z,33.90
2023-07-09T11:58:14.733Z,33.80
2023-07-09T12:00:46.228Z,33.80
2023-07-09T12:03:24.839Z,33.80
2023-07-09T12:06:05.037Z,33.80
2023-07-09T12:08:41.913Z,33.80
2023-07-09T12:11:24.032Z,33.90
2023-07-09T12:13:52.171Z,33.90
2023-07-09T12:16:27.893Z,33.90
2023-07-09T12:18:55.621Z,33.80
2023-07-09T12:21:25.559Z,33.80
2023-07-09T12:23:59.866Z,33.90
2023-07-09T12:26:26.808Z,33.90
2023-07-09T12:28:59.249Z,33.90
2023-07-09T12:31:31.490Z,34.00
2023-07-09T12:33:59.603Z,34.10
2023-07-09T12:36:28.541Z,34.10
2023-07-09T12:39:03.725Z,34.10
2023-07-09T12:41:40.307Z,34.20
2023-07-09T12:44:16.318Z,34.30
2023-07-09T12:46:45.776Z,34.30
2023-07-09T12:49:27.155Z,34.20
2023-07-09T12:51:59.958Z,34.20
2023-07-09T12:54:29.626Z,34.20
2023-07-09T12:57:00.389Z,34.30
2023-07-09T12:59:38.347Z,34.30
2023-07-09T13:02:29.307Z,34.40
2023-07-09T13:05:19.177Z,34.40
2023-07-09T13:07:52.332Z,34.50
2023-07-09T13:10:23.324Z,34.40
2023-07-09T13:12:53.063Z,34.50
2023-07-09T13:15:26.283Z,34.50
2023-07-09T13:18:00.225Z,34.60
2023-07-09T13:20:28.221Z,34.70
2023-07-09T13:22:55.840Z,34.60
2023-07-09T13:25:36.558Z,34.60
2023-07-09T13:28:31.309Z,34.70
2023-07-09T13:31:03.338Z,34.80
2023-07-09T13:33:30.487Z,34.80
2023-07-09T13:35:57.501Z,34.70
2023-07-09T13:38:25.806Z,34.60
2023-07-09T13:40:58.211Z,34.60
2023-07-09T13:43:32.045Z,34.70
2023-07-09T13:46:00.967Z,34.80
2023-07-09T13:48:30.064Z,34.70
2023-07-09T13:50:58.190Z,34.80
2023-07-09T13:53:30.391Z,34.90
2023-07-09T13:55:57.195Z,34.80
2023-07-09T13:58:27.669Z,34.90
2023-07-09T14:01:14.373Z,34.90
2023-07-09T14:03:43.123Z,34.90
2023-07-09T14:06:14.170Z,34.90
2023-07-09T14:08:41.225Z,34.90
2023-07-09T14:11:17.410Z,34.90
2023-07-09T14:13:45.064Z,34.90
2023-07-09T14:16:14.043Z,34.90
2023-07-09T14:18:41.143Z,34.70
2023-07-09T14:21:27.198Z,34.50
2023-07-09T14:23:54.768Z,34.60
2023-07-09T14:26:21.661Z,34.70
2023-07-09T14:28:48.700Z,34.70
2023-07-09T14:31:28.197Z,34.70
2023-07-09T14:33:57.739Z,34.70
2023-07-09T14:36:24.682Z,34.70
2023-07-09T14:38:51.524Z,34.80
2023-07-09T14:41:27.576Z,34.80
2023-07-09T14:43:58.982Z,34.80
2023-07-09T14:46:25.849Z,34.80
2023-07-09T14:48:52.702Z,34.80
2023-07-09T14:51:21.137Z,34.80
2023-07-09T14:53:48.612Z,34.70
2023-07-09T14:56:16.401Z,34.70
2023-07-09T14:58:43.467Z,34.60
2023-07-09T15:01:15.664Z,34.60
2023-07-09T15:03:42.681Z,34.60
2023-07-09T15:06:10.335Z,34.60
2023-07-09T15:08:38.222Z,34.50
2023-07-09T15:11:05.563Z,34.60
2023-07-09T15:13:36.650Z,34.50
2023-07-09T15:16:05.874Z,34.50
2023-07-09T15:18:35.861Z,34.50
2023-07-09T15:21:04.718Z,34.50
2023-07-09T15:23:37.682Z,34.40
2023-07-09T15:26:14.416Z,34.40
2023-07-09T15:28:41.356Z,34.30
2023-07-09T15:31:12.069Z,34.20
2023-07-09T15:33:39.700Z,34.20
2023-07-09T15:36:12.869Z,34.10
2023-07-09T15:38:42.795Z,34.00
2023-07-09T15:41:13.928Z,34.00
2023-07-09T15:43:44.779Z,33.90
2023-07-09T15:46:21.566Z,33.80
2023-07-09T15:48:51.340Z,33.80
2023-07-09T15:51:18.444Z,33.70
2023-07-09T15:53:45.369Z,33.70
2023-07-09T15:56:31.409Z,33.60
2023-07-09T15:59:00.208Z,33.60
2023-07-09T16:01:27.220Z,33.50
2023-07-09T16:04:01.650Z,33.40
2023-07-09T16:06:28.871Z,33.30
2023-07-09T16:08:55.793Z,33.30
2023-07-09T16:11:24.524Z,33.20
2023-07-09T16:13:53.464Z,33.20
2023-07-09T16:16:24.239Z,33.10
2023-07-09T16:18:51.764Z,33.10
2023-07-09T16:21:31.386Z,33.00
2023-07-09T16:24:01.456Z,33.00
2023-07-09T16:26:29.732Z,32.90
2023-07-09T16:28:56.608Z,32.90
2023-07-09T16:31:23.501Z,32.80
2023-07-09T16:33:50.393Z,32.80
2023-07-09T16:36:19.285Z,32.70
2023-07-09T16:38:47.724Z,32.70
2023-07-09T16:41:14.656Z,32.70
2023-07-09T16:43:42.425Z,32.60
2023-07-09T16:46:25.455Z,32.60
2023-07-09T16:48:55.072Z,32.50
2023-07-09T16:51:21.937Z,32.50
2023-07-09T16:53:49.899Z,32.40
2023-07-09T16:56:16.845Z,32.40
2023-07-09T16:58:43.850Z,32.40
2023-07-09T17:01:12.780Z,32.40
2023-07-09T17:03:39.852Z,32.30
2023-07-09T17:06:06.783Z,32.30
2023-07-09T17:08:33.669Z,32.20
2023-07-09T17:11:04.073Z,32.20
2023-07-09T17:13:31.766Z,32.20
2023-07-09T17:15:58.725Z,32.10
2023-07-09T17:18:31.876Z,32.10
2023-07-09T17:21:02.763Z,32.00
2023-07-09T17:23:31.132Z,32.00
2023-07-09T17:26:00.554Z,31.90
2023-07-09T17:28:30.376Z,31.90
2023-07-09T17:30:58.916Z,31.90
2023-07-09T17:33:26.377Z,31.80
2023-07-09T17:35:54.816Z,31.80
2023-07-09T17:38:34.458Z,31.70
2023-07-09T17:41:01.322Z,31.70
2023-07-09T17:43:28.197Z,31.60
2023-07-09T17:45:56.330Z,31.60
2023-07-09T17:48:30.586Z,31.50
2023-07-09T17:50:58.167Z,31.40
2023-07-09T17:53:31.616Z,31.30
2023-07-09T17:55:59.525Z,31.20
2023-07-09T17:58:37.861Z,31.10
2023-07-09T18:01:06.891Z,31.00
2023-07-09T18:03:35.183Z,30.90
2023-07-09T18:06:03.607Z,30.80
2023-07-09T18:08:32.438Z,30.70
2023-07-09T18:10:59.919Z,30.60
2023-07-09T18:13:29.535Z,30.60
2023-07-09T18:15:56.634Z,30.50
2023-07-09T18:18:24.254Z,30.40
2023-07-09T18:20:51.141Z,30.30
2023-07-09T18:23:18.040Z,30.20
2023-07-09T18:25:46.454Z,30.00
2023-07-09T18:28:27.486Z,29.90
2023-07-09T18:31:06.717Z,29.90
2023-07-09T18:33:38.290Z,29.70
2023-07-09T18:36:05.507Z,29.60
2023-07-09T18:38:32.436Z,29.50
2023-07-09T18:40:59.558Z,29.40
2023-07-09T18:45:56.237Z,29.20
2023-07-09T18:48:28.657Z,29.10
2023-07-09T18:50:58.688Z,29.00
2023-07-09T18:53:28.449Z,28.80
2023-07-09T18:55:55.622Z,28.60
2023-07-09T18:58:29.103Z,28.50
2023-07-09T19:00:59.520Z,28.50
2023-07-09T19:03:36.953Z,28.30
2023-07-09T19:06:04.837Z,28.30
2023-07-09T19:08:34.642Z,28.10
2023-07-09T19:11:03.624Z,28.00
2023-07-09T19:13:30.872Z,27.90
2023-07-09T19:16:01.630Z,27.80
2023-07-09T19:18:34.486Z,27.70
2023-07-09T19:21:01.610Z,27.60
2023-07-09T19:23:28.781Z,27.50
2023-07-09T19:25:56.132Z,27.40
2023-07-09T19:28:23.751Z,27.30
2023-07-09T19:30:53.607Z,27.20
2023-07-09T19:33:36.249Z,27.00
2023-07-09T19:36:04.661Z,26.90
2023-07-09T19:38:32.713Z,26.90
2023-07-09T19:40:59.640Z,26.80
2023-07-09T19:43:26.532Z,26.70
2023-07-09T19:45:53.461Z,26.60
2023-07-09T19:48:24.709Z,26.50
2023-07-09T19:50:52.091Z,26.50
2023-07-09T19:53:28.318Z,26.30
2023-07-09T19:55:56.835Z,26.30
2023-07-09T19:58:24.615Z,26.20
2023-07-09T20:00:53.116Z,26.10
2023-07-09T20:03:30.504Z,26.00
2023-07-09T20:05:58.407Z,26.00
2023-07-09T20:08:26.456Z,25.90
2023-07-09T20:10:59.132Z,25.80
2023-07-09T20:13:31.306Z,25.70
2023-07-09T20:15:58.801Z,25.60
2023-07-09T20:18:26.886Z,25.40
2023-07-09T20:21:03.968Z,25.40
2023-07-09T20:23:31.949Z,25.30
2023-07-09T20:25:59.374Z,25.20
2023-07-09T20:28:29.325Z,25.10
2023-07-09T20:30:57.484Z,25.00
2023-07-09T20:33:25.853Z,25.00
2023-07-09T20:35:52.937Z,24.90
2023-07-09T20:38:23.982Z,24.80
2023-07-09T20:40:51.513Z,24.80
2023-07-09T20:43:32.031Z,24.70
2023-07-09T20:45:58.898Z,24.70
2023-07-09T20:48:25.974Z,24.70
2023-07-09T20:50:57.601Z,24.60
2023-07-09T20:53:25.547Z,24.60
2023-07-09T20:55:56.397Z,24.50
2023-07-09T20:58:26.348Z,24.40
2023-07-09T21:00:55.873Z,24.30
2023-07-09T21:03:26.534Z,24.20
2023-07-09T21:05:54.428Z,24.10
2023-07-09T21:08:28.532Z,24.00
2023-07-09T21:10:55.606Z,24.00
2023-07-09T21:13:25.650Z,23.80
2023-07-09T21:15:56.562Z,23.70
2023-07-09T21:18:32.982Z,23.70
2023-07-09T21:21:00.199Z,23.60
2023-07-09T21:23:27.005Z,23.50
2023-07-09T21:25:54.358Z,23.50
2023-07-09T21:28:21.742Z,23.40
2023-07-09T21:30:48.890Z,23.40
2023-07-09T21:33:20.436Z,23.30
2023-07-09T21:35:48.127Z,23.30
2023-07-09T21:38:24.058Z,23.20
2023-07-09T21:40:53.173Z,23.10
2023-07-09T21:43:20.887Z,23.10
2023-07-09T21:45:51.367Z,23.00
2023-07-09T21:48:24.484Z,23.00
2023-07-09T21:50:51.805Z,23.00
2023-07-09T21:53:45.931Z,22.90
2023-07-09T21:56:15.056Z,22.90
2023-07-09T21:58:43.234Z,22.90
2023-07-09T22:01:19.523Z,22.80
2023-07-09T22:03:47.279Z,22.80
2023-07-09T22:06:14.431Z,22.70
2023-07-09T22:08:46.417Z,22.70
2023-07-09T22:11:35.357Z,22.60
2023-07-09T22:14:02.372Z,22.60
2023-07-09T22:16:29.229Z,22.50
2023-07-09T22:18:56.179Z,22.50
2023-07-09T22:21:23.049Z,22.40
2023-07-09T22:23:53.717Z,22.40
2023-07-09T22:26:20.615Z,22.30
2023-07-09T22:28:47.551Z,22.30
2023-07-09T22:31:14.963Z,22.30
2023-07-09T22:33:43.159Z,22.20
2023-07-09T22:36:12.800Z,22.10
2023-07-09T22:38:39.676Z,22.10
2023-07-09T22:41:07.503Z,22.00
2023-07-09T22:43:34.748Z,22.00
2023-07-09T22:46:02.391Z,21.90
2023-07-09T22:48:30.752Z,21.90
2023-07-09T22:50:58.160Z,21.80
2023-07-09T22:53:26.282Z,21.80
2023-07-09T22:55:54.117Z,21.80
2023-07-09T22:58:22.475Z,21.80
2023-07-09T23:01:01.709Z,21.70
2023-07-09T23:03:37.768Z,21.70
2023-07-09T23:06:28.560Z,21.60
2023-07-09T23:08:56.663Z,21.60
2023-07-09T23:11:29.323Z,21.50
2023-07-09T23:13:57.907Z,21.50
2023-07-09T23:16:31.156Z,21.40
2023-07-09T23:19:12.834Z,21.40
2023-07-09T23:21:39.670Z,21.40
2023-07-09T23:24:06.638Z,21.40
2023-07-09T23:26:33.816Z,21.30
2023-07-09T23:29:01.066Z,21.30
2023-07-09T23:31:31.439Z,21.30
2023-07-09T23:34:00.191Z,21.30
2023-07-09T23:36:27.989Z,21.20
2023-07-09T23:38:54.847Z,21.20
2023-07-09T23:41:26.739Z,21.10
2023-07-09T23:43:57.669Z,21.10
2023-07-09T23:46:31.285Z,21.10
2023-07-09T23:49:08.706Z,21.00
2023-07-09T23:51:36.822Z,21.00
2023-07-09T23:54:03.690Z,20.90
2023-07-09T23:56:34.835Z,21.00
2023-07-09T23:59:03.620Z,20.90
